Time;durP1;ratioP1;P1;durP2;ratioP2;P2;SDS_P1;SDS_P2;PMS_P1;PMS_P2;Temp;Humidity;BMP_temperature;BMP_pressure;BME280_temperature;BME280_humidity;BME280_pressure;Samples;Min_cycle;Max_cycle;Signal;HPM_P1;HPM_P2
2024/01/28 00:00:15;;;;;;;6.03;2.27;;;;;;;3.88;78.13;102879.25;5053735;28;20204;-78
2024/01/28 00:02:43;;;;;;;4.43;2.37;;;;;;;3.87;78.40;102864.59;5054983;28;20628;-78
2024/01/28 00:05:12;;;;;;;6.57;2.33;;;;;;;3.88;78.14;102859.47;5054391;28;20265;-78
2024/01/28 00:07:39;;;;;;;6.07;2.20;;;;;;;3.94;77.63;102856.28;5054470;28;20213;-78
2024/01/28 00:10:06;;;;;;;9.27;3.40;;;;;;;3.90;78.12;102862.13;5053982;28;20231;-78
2024/01/28 00:12:32;;;;;;;5.77;3.03;;;;;;;3.94;77.90;102854.63;5055316;28;20239;-78
2024/01/28 00:14:59;;;;;;;10.77;2.77;;;;;;;3.89;77.81;102857.78;5054313;28;20735;-78
2024/01/28 00:17:26;;;;;;;6.97;2.33;;;;;;;3.87;78.07;102855.13;5055552;28;20207;-78
2024/01/28 00:19:53;;;;;;;4.90;2.27;;;;;;;3.87;77.78;102855.13;5054626;28;20208;-79
2024/01/28 00:22:20;;;;;;;4.83;2.20;;;;;;;3.86;77.73;102855.91;5055033;28;20211;-79
2024/01/28 00:24:46;;;;;;;5.27;2.20;;;;;;;3.86;77.65;102855.03;5055065;28;20272;-78
2024/01/28 00:27:12;;;;;;;3.50;2.27;;;;;;;3.78;77.38;102854.69;5035872;28;20262;-79
2024/01/28 00:29:39;;;;;;;4.40;2.53;;;;;;;3.76;77.93;102848.56;5034252;28;20226;-79
2024/01/28 00:32:06;;;;;;;5.27;2.03;;;;;;;3.75;77.97;102851.97;5034828;28;20205;-78
2024/01/28 00:34:32;;;;;;;6.10;2.50;;;;;;;3.75;77.87;102846.81;5034851;28;20800;-79
2024/01/28 00:37:02;;;;;;;7.07;2.73;;;;;;;3.66;78.26;102843.75;5035664;28;20205;-79
2024/01/28 00:39:28;;;;;;;7.03;2.73;;;;;;;3.61;78.21;102833.22;5047558;28;20230;-79
2024/01/28 00:41:55;;;;;;;3.70;2.23;;;;;;;3.57;78.39;102821.84;5055209;28;20235;-79
2024/01/28 00:44:21;;;;;;;5.23;2.30;;;;;;;3.57;78.51;102821.84;5055440;28;20207;-79
2024/01/28 00:46:47;;;;;;;5.83;2.63;;;;;;;3.53;78.43;102822.50;5056126;28;20206;-79
2024/01/28 00:49:14;;;;;;;11.83;2.70;;;;;;;3.57;78.23;102818.38;5055798;28;20236;-79
2024/01/28 00:51:41;;;;;;;4.47;3.10;;;;;;;3.57;78.07;102818.38;5056059;28;20235;-79
2024/01/28 00:54:09;;;;;;;7.03;2.93;;;;;;;3.55;78.29;102814.84;5056242;28;20231;-79
2024/01/28 00:56:35;;;;;;;7.30;2.70;;;;;;;3.52;78.55;102814.69;5049969;28;20261;-78
2024/01/28 00:59:02;;;;;;;6.80;2.90;;;;;;;3.55;78.99;102804.53;5034165;28;20199;-79
2024/01/28 01:01:28;;;;;;;4.70;2.73;;;;;;;3.57;78.42;102795.16;5044423;28;20227;-79
2024/01/28 01:03:54;;;;;;;5.80;2.77;;;;;;;3.56;78.75;102795.94;5052120;28;20579;-79
2024/01/28 01:06:21;;;;;;;5.80;2.27;;;;;;;3.47;78.94;102793.81;5054965;28;20803;-80
2024/01/28 01:08:47;;;;;;;5.03;2.70;;;;;;;3.48;79.44;102781.78;5054506;28;20212;-79
2024/01/28 01:11:15;;;;;;;3.97;2.23;;;;;;;3.46;79.33;102775.66;5036815;28;20585;-79
2024/01/28 01:13:41;;;;;;;6.97;2.80;;;;;;;3.51;79.09;102769.91;5031475;28;20201;-79
2024/01/28 01:16:08;;;;;;;6.13;2.50;;;;;;;3.49;79.04;102774.13;5031924;28;20260;-79
2024/01/28 01:18:34;;;;;;;8.33;2.60;;;;;;;3.50;79.13;102769.84;5033999;28;20253;-80
2024/01/28 01:21:01;;;;;;;6.73;2.97;;;;;;;3.50;79.38;102762.97;5032800;28;20247;-79
2024/01/28 01:23:27;;;;;;;6.40;2.60;;;;;;;3.50;79.59;102754.34;5032673;28;20210;-79
2024/01/28 01:25:54;;;;;;;10.20;2.50;;;;;;;3.41;80.06;102744.47;5049493;28;20226;-79
2024/01/28 01:28:21;;;;;;;8.23;3.03;;;;;;;3.36;80.39;102726.16;5033921;28;20211;-80
2024/01/28 01:30:48;;;;;;;6.30;2.77;;;;;;;3.44;80.74;102712.75;5032448;28;20228;-79
2024/01/28 01:33:14;;;;;;;6.30;2.50;;;;;;;3.45;80.81;102701.59;5035606;28;20233;-79
2024/01/28 01:35:40;;;;;;;4.10;2.13;;;;;;;3.50;80.49;102701.00;5033885;28;20227;-79
2024/01/28 01:38:07;;;;;;;7.60;2.53;;;;;;;3.50;80.56;102700.13;5036048;28;20212;-79
2024/01/28 01:40:33;;;;;;;5.30;2.50;;;;;;;3.45;80.46;102699.00;5034450;28;20207;-80
2024/01/28 01:43:00;;;;;;;6.30;2.43;;;;;;;3.46;80.27;102699.09;5035357;28;20204;-80
2024/01/28 01:45:28;;;;;;;8.03;2.23;;;;;;;3.41;80.32;102700.59;5034785;28;20250;-79
2024/01/28 01:47:55;;;;;;;5.63;2.53;;;;;;;3.44;80.34;102692.09;5034758;28;20207;-79
2024/01/28 01:50:21;;;;;;;7.23;2.83;;;;;;;3.49;80.56;102686.34;5032342;28;20276;-79
2024/01/28 01:52:47;;;;;;;6.73;3.53;;;;;;;3.55;80.31;102690.91;5033150;28;20205;-80
2024/01/28 01:55:15;;;;;;;5.60;2.60;;;;;;;3.52;80.67;102701.06;5047993;28;20280;-80
2024/01/28 01:57:43;;;;;;;7.40;2.60;;;;;;;3.49;80.32;102701.81;5054047;28;20227;-79
2024/01/28 02:00:14;;;;;;;4.63;2.50;;;;;;;3.57;80.43;102703.06;5051993;28;20293;-80
2024/01/28 02:02:44;;;;;;;6.57;3.67;;;;;;;3.55;80.42;102707.28;5052971;28;20202;-79
2024/01/28 02:05:10;;;;;;;5.07;3.00;;;;;;;3.52;80.16;102712.28;5052935;28;20227;-79
2024/01/28 02:07:37;;;;;;;4.73;2.43;;;;;;;3.55;79.65;102701.22;5053065;28;20695;-80
2024/01/28 02:10:05;;;;;;;5.83;2.70;;;;;;;3.50;79.77;102715.63;5053776;28;20264;-80
2024/01/28 02:12:32;;;;;;;6.93;2.37;;;;;;;3.49;79.95;102717.31;5053951;28;20208;-79
2024/01/28 02:15:04;;;;;;;5.07;2.37;;;;;;;3.49;79.84;102706.09;5053335;28;20249;-80
2024/01/28 02:17:30;;;;;;;4.97;2.73;;;;;;;3.46;79.90;102701.66;5054991;28;20203;-80
2024/01/28 02:19:59;;;;;;;8.40;2.87;;;;;;;3.42;80.23;102688.56;5054300;28;20801;-80
2024/01/28 02:22:26;;;;;;;6.63;2.67;;;;;;;3.41;80.52;102699.69;5055128;28;20809;-80
2024/01/28 02:24:54;;;;;;;5.67;2.23;;;;;;;3.44;80.12;102679.19;5047294;28;20233;-80
2024/01/28 02:27:20;;;;;;;6.23;2.10;;;;;;;3.35;80.67;102685.69;5044438;28;20684;-80
2024/01/28 02:29:47;;;;;;;5.53;2.43;;;;;;;3.42;80.71;102675.66;5034096;28;20226;-80
2024/01/28 02:32:16;;;;;;;10.07;2.67;;;;;;;3.42;80.68;102663.63;5035157;28;20204;-80
2024/01/28 02:34:43;;;;;;;7.83;2.10;;;;;;;3.50;80.85;102662.28;5034991;28;20718;-80
2024/01/28 02:37:10;;;;;;;7.43;2.47;;;;;;;3.62;80.28;102664.53;5036776;28;20216;-80
2024/01/28 02:39:37;;;;;;;7.80;2.50;;;;;;;3.74;79.74;102670.25;5050648;28;20206;-80
2024/01/28 02:42:05;;;;;;;6.50;1.83;;;;;;;3.74;79.04;102683.16;5058417;28;20269;-80
2024/01/28 02:44:31;;;;;;;6.70;2.70;;;;;;;3.73;79.36;102694.31;5058824;28;20225;-80
2024/01/28 02:47:01;;;;;;;4.07;1.93;;;;;;;3.74;78.69;102700.38;5058022;28;20268;-79
2024/01/28 02:49:27;;;;;;;3.30;1.70;;;;;;;3.74;78.47;102708.13;5056786;28;20235;-80
2024/01/28 02:51:54;;;;;;;8.43;2.37;;;;;;;3.62;78.59;102708.44;5051663;28;20272;-80
2024/01/28 02:54:22;;;;;;;3.50;2.17;;;;;;;3.68;78.52;102720.75;5043267;28;20203;-80
2024/01/28 02:56:49;;;;;;;12.10;2.30;;;;;;;3.57;77.86;102740.91;5059398;28;20219;-79
2024/01/28 02:59:17;;;;;;;6.10;2.10;;;;;;;3.53;78.27;102744.19;5058258;28;20204;-80
2024/01/28 03:01:46;;;;;;;4.60;2.07;;;;;;;3.51;78.10;102743.22;5038851;28;20230;-80
2024/01/28 03:04:12;;;;;;;4.77;1.80;;;;;;;3.44;78.13;102726.53;5037685;28;20237;-80
2024/01/28 03:06:38;;;;;;;7.63;2.43;;;;;;;3.37;78.46;102727.94;5049674;28;20204;-79
2024/01/28 03:09:05;;;;;;;3.47;1.80;;;;;;;3.20;78.85;102725.38;5056036;28;20225;-79
2024/01/28 03:11:31;;;;;;;6.00;2.17;;;;;;;3.23;79.29;102713.50;5056419;28;20231;-79
2024/01/28 03:13:58;;;;;;;6.17;1.80;;;;;;;3.13;79.53;102693.22;5056706;28;20203;-79
2024/01/28 03:16:25;;;;;;;5.33;2.20;;;;;;;3.16;79.85;102683.94;5056747;28;20230;-79
2024/01/28 03:18:52;;;;;;;6.73;1.93;;;;;;;3.12;79.81;102671.69;5056499;28;20635;-79
2024/01/28 03:21:18;;;;;;;3.27;1.50;;;;;;;3.18;79.50;102669.41;5056194;28;20214;-80
2024/01/28 03:23:45;;;;;;;8.23;1.90;;;;;;;3.18;79.62;102658.19;5043912;28;20290;-79
2024/01/28 03:26:11;;;;;;;6.43;2.17;;;;;;;3.14;79.66;102662.31;5055992;28;20322;-79
2024/01/28 03:28:38;;;;;;;5.17;2.07;;;;;;;3.16;79.30;102659.81;5057299;28;20261;-80
2024/01/28 03:31:04;;;;;;;2.93;1.80;;;;;;;2.84;80.91;102654.00;5057257;28;20280;-80
2024/01/28 03:33:32;;;;;;;4.00;1.83;;;;;;;2.79;81.18;102629.69;5057609;28;20211;-79
2024/01/28 03:35:59;;;;;;;6.80;1.80;;;;;;;2.71;81.76;102611.25;5055630;28;20234;-80
2024/01/28 03:38:25;;;;;;;3.60;1.77;;;;;;;2.76;82.11;102596.91;5056039;28;20211;-79
2024/01/28 03:40:51;;;;;;;4.43;1.77;;;;;;;2.77;82.22;102593.53;5056761;28;20728;-80
2024/01/28 03:43:18;;;;;;;4.13;1.87;;;;;;;2.84;81.98;102586.94;5056797;28;20204;-80
2024/01/28 03:45:44;;;;;;;7.70;1.93;;;;;;;2.86;81.42;102587.03;5056934;28;20222;-80
2024/01/28 03:48:11;;;;;;;3.97;1.80;;;;;;;2.90;81.53;102586.34;5041184;28;20250;-80
2024/01/28 03:50:38;;;;;;;5.00;2.03;;;;;;;2.89;81.17;102590.63;5056206;28;20273;-79
2024/01/28 03:53:05;;;;;;;6.90;1.90;;;;;;;2.87;81.69;102583.63;5056553;28;20203;-80
2024/01/28 03:55:32;;;;;;;6.57;2.20;;;;;;;2.89;81.08;102582.88;5056272;28;20228;-79
2024/01/28 03:57:58;;;;;;;4.57;1.93;;;;;;;2.89;81.65;102579.41;5056139;28;20207;-80
2024/01/28 04:00:28;;;;;;;5.90;1.80;;;;;;;2.89;81.74;102579.41;5056173;28;20661;-80
2024/01/28 04:02:56;;;;;;;4.43;1.93;;;;;;;2.85;81.79;102572.34;5044322;28;20266;-79
2024/01/28 04:05:23;;;;;;;6.33;2.23;;;;;;;2.67;82.01;102570.66;5036419;28;20310;-80
2024/01/28 04:07:50;;;;;;;6.57;1.83;;;;;;;2.78;82.13;102561.75;5036964;28;20209;-79
2024/01/28 04:10:17;;;;;;;5.60;2.00;;;;;;;2.72;82.89;102551.16;5036514;28;20240;-79
2024/01/28 04:12:43;;;;;;;10.33;1.93;;;;;;;2.77;82.56;102541.94;5048544;28;20199;-80
2024/01/28 04:15:10;;;;;;;6.40;1.90;;;;;;;2.81;82.55;102534.34;5056028;28;20235;-80
2024/01/28 04:17:36;;;;;;;5.63;2.17;;;;;;;2.80;82.22;102541.19;5053801;28;20662;-79
2024/01/28 04:20:03;;;;;;;4.13;1.63;;;;;;;2.81;82.42;102544.66;5035694;28;20556;-80
2024/01/28 04:22:30;;;;;;;4.97;1.63;;;;;;;2.81;81.95;102547.22;5036478;28;20217;-80
2024/01/28 04:24:58;;;;;;;2.60;1.70;;;;;;;2.76;81.98;102547.03;5046161;28;20223;-80
2024/01/28 04:27:24;;;;;;;3.07;1.50;;;;;;;2.80;81.83;102550.63;5057237;28;20211;-80
2024/01/28 04:29:51;;;;;;;3.43;1.40;;;;;;;2.76;82.37;102549.59;5055451;28;20209;-80
2024/01/28 04:32:17;;;;;;;4.47;2.20;;;;;;;2.77;81.98;102548.78;5057822;28;20210;-79
2024/01/28 04:34:44;;;;;;;4.70;1.90;;;;;;;2.74;82.28;102539.22;5056802;28;20235;-79
2024/01/28 04:37:11;;;;;;;2.73;1.50;;;;;;;2.76;81.62;102531.56;5056658;28;20281;-79
2024/01/28 04:39:37;;;;;;;5.33;1.70;;;;;;;2.80;81.42;102535.16;5056644;28;20211;-80
2024/01/28 04:42:06;;;;;;;3.90;2.47;;;;;;;2.78;81.45;102538.53;5056560;28;20650;-80
2024/01/28 04:44:32;;;;;;;3.00;1.80;;;;;;;2.67;82.03;102549.16;5056652;28;20222;-80
2024/01/28 04:46:58;;;;;;;5.50;1.50;;;;;;;2.63;81.41;102552.41;5056197;28;20207;-79
2024/01/28 04:49:25;;;;;;;3.57;1.90;;;;;;;2.64;81.82;102556.75;5056545;28;20210;-80
2024/01/28 04:51:51;;;;;;;8.93;1.87;;;;;;;2.66;81.75;102544.81;5056523;28;20247;-80
2024/01/28 04:54:18;;;;;;;3.43;2.20;;;;;;;2.64;81.46;102555.06;5054511;28;20218;-79
2024/01/28 04:56:45;;;;;;;7.30;3.03;;;;;;;2.61;81.74;102552.31;5054110;28;20202;-80
2024/01/28 04:59:13;;;;;;;5.17;2.10;;;;;;;2.71;81.99;102548.50;5056114;28;20626;-79
2024/01/28 05:01:39;;;;;;;6.60;2.67;;;;;;;2.64;81.77;102543.88;5056466;28;20344;-79
2024/01/28 05:04:05;;;;;;;5.30;1.80;;;;;;;2.64;81.43;102537.00;5056818;28;20202;-79
2024/01/28 05:06:35;;;;;;;6.57;2.00;;;;;;;2.64;81.88;102530.97;5056600;28;20256;-80
2024/01/28 05:09:03;;;;;;;4.90;1.73;;;;;;;2.62;81.58;102525.75;5043945;28;20206;-80
2024/01/28 05:11:29;;;;;;;5.20;1.50;;;;;;;2.54;81.85;102527.97;5047063;28;20230;-80
2024/01/28 05:13:56;;;;;;;5.47;2.00;;;;;;;2.49;82.16;102523.38;5055718;28;20256;-80
2024/01/28 05:16:24;;;;;;;2.23;1.67;;;;;;;2.44;81.84;102525.75;5056360;28;20253;-80
2024/01/28 05:18:51;;;;;;;8.33;2.10;;;;;;;2.44;82.16;102520.59;5055899;28;20226;-79
2024/01/28 05:21:18;;;;;;;4.10;1.97;;;;;;;2.47;81.88;102514.69;5053979;28;20609;-80
2024/01/28 05:23:45;;;;;;;6.13;1.90;;;;;;;2.51;81.28;102514.03;5042404;28;20203;-79
2024/01/28 05:26:12;;;;;;;4.83;2.10;;;;;;;2.46;81.98;102523.22;5052483;28;20227;-79
2024/01/28 05:28:38;;;;;;;4.27;2.23;;;;;;;2.45;81.52;102524.06;5053488;28;20679;-79
2024/01/28 05:31:05;;;;;;;5.77;2.43;;;;;;;2.38;82.07;102517.72;5053850;28;20273;-79
2024/01/28 05:33:37;;;;;;;7.73;2.17;;;;;;;2.41;82.06;102514.41;5053595;28;20211;-79
2024/01/28 05:36:10;;;;;;;6.93;1.80;;;;;;;2.31;82.76;102511.38;5053882;28;20309;-79
2024/01/28 05:38:37;;;;;;;7.43;2.03;;;;;;;2.34;82.16;102508.09;5048371;28;20658;-79
2024/01/28 05:41:03;;;;;;;4.27;2.20;;;;;;;2.28;82.93;102494.88;5053147;28;20615;-79
2024/01/28 05:43:30;;;;;;;8.83;2.60;;;;;;;2.32;82.42;102495.13;5053316;28;20240;-79
2024/01/28 05:45:56;;;;;;;6.60;2.00;;;;;;;2.28;82.61;102497.44;5053370;28;20235;-79
2024/01/28 05:48:22;;;;;;;4.10;2.33;;;;;;;2.28;82.68;102487.16;5054228;28;20210;-79
2024/01/28 05:50:50;;;;;;;14.73;2.47;;;;;;;2.27;83.10;102475.97;5053466;28;20281;-79
2024/01/28 05:53:16;;;;;;;6.57;2.43;;;;;;;2.23;83.66;102465.44;5053883;28;20285;-80
2024/01/28 05:55:43;;;;;;;5.27;2.30;;;;;;;2.33;82.73;102458.22;5054141;28;20230;-80
2024/01/28 05:58:09;;;;;;;5.13;1.93;;;;;;;2.38;82.75;102461.91;5054172;28;20202;-79
2024/01/28 06:00:36;;;;;;;5.33;2.17;;;;;;;2.35;83.31;102461.75;5053308;28;20202;-79
2024/01/28 06:03:02;;;;;;;6.27;2.20;;;;;;;2.38;83.08;102469.63;5054638;28;20216;-79
2024/01/28 06:05:30;;;;;;;5.40;2.30;;;;;;;2.45;81.92;102475.94;5054606;28;20242;-79
2024/01/28 06:07:57;;;;;;;4.63;2.30;;;;;;;2.62;81.55;102491.31;5042654;28;20214;-79
2024/01/28 06:10:24;;;;;;;5.20;1.97;;;;;;;2.64;81.42;102507.78;5053281;28;20215;-79
2024/01/28 06:12:50;;;;;;;4.43;2.03;;;;;;;2.75;80.76;102517.75;5057556;28;20199;-79
2024/01/28 06:15:16;;;;;;;3.57;1.93;;;;;;;2.77;81.00;102530.72;5057024;28;20284;-79
2024/01/28 06:17:42;;;;;;;3.10;1.77;;;;;;;2.78;80.46;102537.66;5058372;28;20233;-80
2024/01/28 06:20:10;;;;;;;4.07;1.90;;;;;;;2.80;79.69;102546.34;5057840;28;20197;-79
2024/01/28 06:22:36;;;;;;;4.37;2.10;;;;;;;2.67;79.94;102565.50;5057221;28;20713;-79
2024/01/28 06:25:07;;;;;;;7.83;2.53;;;;;;;2.64;79.79;102569.66;5058141;28;20651;-79
2024/01/28 06:27:33;;;;;;;6.27;1.67;;;;;;;2.80;79.81;102558.38;5057269;28;20206;-79
2024/01/28 06:29:59;;;;;;;3.43;1.80;;;;;;;2.77;80.05;102562.56;5057667;28;20204;-79
2024/01/28 06:32:26;;;;;;;2.20;1.53;;;;;;;2.78;80.39;102566.91;5057996;28;20222;-79
2024/01/28 06:34:52;;;;;;;7.47;2.27;;;;;;;2.77;79.81;102565.16;5058181;28;20222;-79
2024/01/28 06:37:19;;;;;;;3.07;1.83;;;;;;;2.72;80.05;102568.31;5057683;28;20262;-80
2024/01/28 06:39:49;;;;;;;2.93;2.50;;;;;;;2.62;80.42;102568.66;5057362;28;20205;-79
2024/01/28 06:42:18;;;;;;;5.83;2.10;;;;;;;2.64;80.64;102561.91;5057370;28;20210;-80
2024/01/28 06:44:44;;;;;;;4.30;2.27;;;;;;;2.50;81.24;102561.25;5055593;28;20227;-80
2024/01/28 06:47:11;;;;;;;2.87;1.67;;;;;;;2.58;81.20;102545.34;5039311;28;20210;-79
2024/01/28 06:49:37;;;;;;;6.13;2.17;;;;;;;2.72;81.19;102534.81;5038929;28;20262;-79
2024/01/28 06:52:05;;;;;;;5.63;1.80;;;;;;;2.58;81.25;102540.19;5037903;28;20218;-80
2024/01/28 06:54:31;;;;;;;3.10;1.80;;;;;;;2.56;80.55;102541.81;5038118;28;20283;-79
2024/01/28 06:56:57;;;;;;;4.87;1.80;;;;;;;2.54;81.30;102545.13;5037874;28;20203;-79
2024/01/28 06:59:25;;;;;;;5.07;1.97;;;;;;;2.48;81.27;102531.91;5036742;28;20207;-79
2024/01/28 07:01:51;;;;;;;3.13;1.77;;;;;;;2.48;80.53;102535.41;5036978;28;20249;-79
2024/01/28 07:04:18;;;;;;;5.97;2.07;;;;;;;2.45;80.71;102544.66;5038678;28;20246;-80
2024/01/28 07:06:44;;;;;;;3.33;1.60;;;;;;;2.45;81.44;102537.81;5037956;28;20211;-80
2024/01/28 07:09:12;;;;;;;4.83;2.23;;;;;;;2.37;81.39;102536.56;5046990;28;20231;-80
2024/01/28 07:11:38;;;;;;;5.57;1.93;;;;;;;2.21;81.89;102519.47;5057728;28;20347;-80
2024/01/28 07:14:04;;;;;;;2.70;1.90;;;;;;;2.24;82.13;102506.75;5056895;28;20210;-80
2024/01/28 07:16:32;;;;;;;3.23;1.60;;;;;;;2.23;81.67;102507.53;5057598;28;20231;-80
2024/01/28 07:18:58;;;;;;;5.87;1.67;;;;;;;2.27;81.80;102495.69;5050075;28;20203;-80
2024/01/28 07:21:26;;;;;;;6.20;2.53;;;;;;;2.36;82.14;102478.13;5057755;28;20249;-80
2024/01/28 07:23:53;;;;;;;3.87;2.27;;;;;;;2.34;81.97;102474.59;5057164;28;20208;-80
2024/01/28 07:26:19;;;;;;;3.60;1.97;;;;;;;2.33;82.35;102463.38;5057695;28;20227;-79
2024/01/28 07:28:45;;;;;;;10.17;2.20;;;;;;;2.31;82.01;102467.56;5057102;28;20211;-79
2024/01/28 07:31:12;;;;;;;3.77;2.20;;;;;;;2.29;82.40;102458.88;5057856;28;20280;-79
2024/01/28 07:33:39;;;;;;;4.90;2.00;;;;;;;2.18;83.07;102460.06;5057597;28;20228;-80
2024/01/28 07:36:06;;;;;;;8.03;2.30;;;;;;;2.25;82.88;102438.94;5057289;28;20237;-79
2024/01/28 07:38:34;;;;;;;4.13;2.20;;;;;;;2.28;82.73;102435.63;5057254;28;20215;-79
2024/01/28 07:41:00;;;;;;;4.83;2.10;;;;;;;2.33;82.47;102423.84;5057370;28;20195;-79
2024/01/28 07:43:27;;;;;;;5.33;2.17;;;;;;;2.35;82.35;102433.41;5057931;28;20211;-79
2024/01/28 07:45:53;;;;;;;4.17;2.17;;;;;;;2.43;82.82;102428.59;5056971;28;20265;-79
2024/01/28 07:48:19;;;;;;;11.57;2.80;;;;;;;2.49;82.65;102434.03;5057363;28;20211;-79
2024/01/28 07:50:46;;;;;;;4.53;2.33;;;;;;;2.39;82.08;102439.59;5056416;28;20210;-79
2024/01/28 07:53:13;;;;;;;6.47;2.60;;;;;;;2.50;82.29;102445.25;5051268;28;20208;-79
2024/01/28 07:55:39;;;;;;;5.07;2.00;;;;;;;2.41;81.19;102448.28;5043446;28;20251;-79
2024/01/28 07:58:06;;;;;;;3.63;1.77;;;;;;;2.43;79.34;102476.69;5055953;28;20207;-82
2024/01/28 08:00:33;;;;;;;4.80;2.20;;;;;;;2.53;79.85;102504.66;5058585;28;20214;-83
2024/01/28 08:02:59;;;;;;;4.17;2.67;;;;;;;2.74;79.43;102505.69;5057993;28;20202;-79
2024/01/28 08:05:26;;;;;;;7.97;5.90;;;;;;;2.79;79.22;102516.19;5049512;28;20235;-81
2024/01/28 08:07:54;;;;;;;5.33;4.83;;;;;;;2.83;78.66;102541.31;5037712;28;20215;-81
2024/01/28 08:10:20;;;;;;;3.27;2.57;;;;;;;2.77;80.00;102547.09;5057587;28;20210;-81
2024/01/28 08:12:46;;;;;;;4.67;2.27;;;;;;;2.77;80.83;102520.41;5058021;28;20280;-81
2024/01/28 08:15:13;;;;;;;3.90;1.80;;;;;;;2.70;81.21;102514.09;5058090;28;20240;-82
2024/01/28 08:17:39;;;;;;;4.77;1.97;;;;;;;2.57;80.55;102501.44;5058003;28;20677;-83
2024/01/28 08:20:07;;;;;;;4.80;4.03;;;;;;;2.66;81.01;102491.56;5058164;28;20203;-82
2024/01/28 08:22:34;;;;;;;6.00;2.20;;;;;;;2.68;82.01;102477.03;5058355;28;20203;-81
2024/01/28 08:25:01;;;;;;;8.77;5.80;;;;;;;2.77;81.84;102464.59;5053792;28;20231;-81
2024/01/28 08:27:30;;;;;;;6.40;4.17;;;;;;;2.70;82.35;102457.38;5038923;28;20204;-83
2024/01/28 08:29:56;;;;;;;4.87;1.80;;;;;;;2.67;83.80;102433.13;5037590;28;20289;-80
2024/01/28 08:32:23;;;;;;;7.80;1.97;;;;;;;2.53;83.94;102406.72;5037568;28;20236;-81
2024/01/28 08:34:51;;;;;;;1.90;1.50;;;;;;;2.57;83.88;102388.88;5057084;28;20227;-79
2024/01/28 08:37:17;;;;;;;6.73;2.60;;;;;;;2.74;83.70;102381.91;5075176;28;20199;-79
2024/01/28 08:39:44;;;;;;;6.80;2.47;;;;;;;2.73;82.70;102387.00;5075758;28;20195;-80
2024/01/28 08:42:12;;;;;;;4.23;2.37;;;;;;;2.81;82.25;102389.91;5077402;28;20277;-80
2024/01/28 08:44:40;;;;;;;9.93;3.17;;;;;;;2.84;81.73;102413.28;5076128;28;20231;-79
2024/01/28 08:47:07;;;;;;;5.20;3.37;;;;;;;3.03;80.87;102418.41;5074894;28;20226;-81
2024/01/28 08:49:33;;;;;;;4.23;2.90;;;;;;;3.18;79.98;102451.75;5055380;28;20239;-82
2024/01/28 08:52:00;;;;;;;4.40;3.50;;;;;;;3.27;77.28;102498.63;5052532;28;20224;-82
2024/01/28 08:54:26;;;;;;;4.53;1.90;;;;;;;3.44;75.75;102553.56;5035242;28;20269;-83
2024/01/28 08:56:53;;;;;;;3.77;2.40;;;;;;;3.66;75.45;102593.25;5035192;28;20693;-82
2024/01/28 08:59:21;;;;;;;5.47;2.60;;;;;;;3.77;74.33;102634.22;5034657;28;20208;-80
2024/01/28 09:01:49;;;;;;;3.17;2.43;;;;;;;3.78;73.62;102685.06;5034368;28;20203;-81
2024/01/28 09:04:16;;;;;;;5.00;2.63;;;;;;;4.04;71.44;102730.97;5035048;28;20243;-80
2024/01/28 09:06:42;;;;;;;4.67;2.90;;;;;;;4.13;71.33;102759.84;5034020;28;20216;-80
2024/01/28 09:12:38;;;;;;;4.57;1.60;;;;;;;4.14;69.56;102790.03;4962697;28;20240;-81
2024/01/28 09:15:07;;;;;;;4.47;1.87;;;;;;;4.26;70.64;102815.53;4978932;28;20280;-82
2024/01/28 09:17:33;;;;;;;8.73;2.50;;;;;;;4.28;71.21;102822.56;5054467;28;20215;-82
2024/01/28 09:20:00;;;;;;;3.57;1.77;;;;;;;4.30;70.38;102845.88;5054922;28;20571;-81
2024/01/28 09:22:26;;;;;;;5.13;1.93;;;;;;;4.28;69.67;102852.69;5039629;28;20628;-83
2024/01/28 09:24:52;;;;;;;6.00;2.40;;;;;;;4.41;68.94;102867.97;5034965;28;20231;-83
2024/01/28 09:27:22;;;;;;;3.63;2.00;;;;;;;4.51;69.95;102883.06;5055290;28;20257;-82
2024/01/28 09:29:49;;;;;;;8.63;7.73;;;;;;;4.54;70.16;102880.63;5055230;28;20264;-82
2024/01/28 09:32:18;;;;;;;6.97;3.17;;;;;;;4.54;69.05;102877.19;5053406;28;20361;-83
2024/01/28 09:34:45;;;;;;;5.63;2.40;;;;;;;4.51;68.66;102884.78;5053559;28;20250;-82
2024/01/28 09:37:11;;;;;;;6.70;3.47;;;;;;;4.57;67.59;102905.75;5054620;28;20289;-82
2024/01/28 09:39:38;;;;;;;6.77;2.17;;;;;;;4.68;66.40;102935.59;5054907;28;20210;-82
2024/01/28 09:42:11;;;;;;;4.00;2.77;;;;;;;4.85;65.92;102971.69;5042811;28;20238;-82
2024/01/28 09:44:38;;;;;;;4.83;2.10;;;;;;;4.90;64.27;102994.38;5033056;28;20253;-81
2024/01/28 09:47:05;;;;;;;6.07;3.78;;;;;;;5.04;64.00;103020.00;5033934;28;20425;-82
2024/01/28 09:49:39;;;;;;;4.03;2.07;;;;;;;5.05;62.26;103045.06;5033525;28;20215;-82
2024/01/28 09:52:10;;;;;;;4.30;3.00;;;;;;;5.16;64.88;103049.03;5033393;28;20276;-82
2024/01/28 09:54:37;;;;;;;3.70;2.10;;;;;;;5.09;66.24;103045.25;5033451;28;20264;-82
2024/01/28 09:57:06;;;;;;;5.27;4.30;;;;;;;5.04;63.42;103044.19;5039445;28;20212;-80
2024/01/28 09:59:35;;;;;;;4.47;3.97;;;;;;;5.09;63.17;103065.09;5049831;28;20298;-82
2024/01/28 10:02:02;;;;;;;6.53;2.43;;;;;;;5.30;62.36;103084.22;5034982;28;20206;-82
2024/01/28 10:04:29;;;;;;;5.43;2.03;;;;;;;5.22;60.20;103114.06;5034754;28;20245;-80
2024/01/28 10:06:57;;;;;;;7.57;6.93;;;;;;;5.35;61.38;103136.19;5034251;28;20215;-80
2024/01/28 10:09:24;;;;;;;3.43;2.77;;;;;;;5.28;62.75;103124.69;5045427;28;20234;-81
2024/01/28 10:11:51;;;;;;;12.90;10.87;;;;;;;5.36;61.29;103144.06;5053685;28;20232;-79
2024/01/28 10:14:17;;;;;;;4.90;4.23;;;;;;;5.39;61.92;103140.72;5051929;28;20211;-78
2024/01/28 10:16:46;;;;;;;5.57;3.47;;;;;;;5.47;61.88;103138.47;5050538;28;20214;-76
2024/01/28 10:19:13;;;;;;;6.10;4.80;;;;;;;5.47;64.72;103108.28;5042536;28;20197;-78
2024/01/28 10:21:39;;;;;;;6.73;5.57;;;;;;;5.52;66.32;103078.28;5050383;28;20262;-78
2024/01/28 10:24:09;;;;;;;4.63;2.70;;;;;;;5.83;68.82;102999.28;5052698;28;20633;-78
2024/01/28 10:26:35;;;;;;;3.53;2.30;;;;;;;6.23;79.19;102809.03;5052701;28;20796;-78
2024/01/28 10:29:02;;;;;;;3.20;1.63;;;;;;;6.46;77.91;102668.88;5051906;28;20499;-78
2024/01/28 10:31:28;;;;;;;4.70;2.27;;;;;;;6.46;71.60;102715.59;5052363;28;20216;-78
2024/01/28 10:33:54;;;;;;;5.70;2.90;;;;;;;6.62;75.88;102701.44;5052174;28;20675;-78
2024/01/28 10:36:22;;;;;;;10.13;3.97;;;;;;;6.87;80.62;102586.31;5052262;28;20221;-78
2024/01/28 10:38:49;;;;;;;3.43;1.23;;;;;;;6.77;70.30;102590.34;5050604;28;20621;-78
2024/01/28 10:41:18;;;;;;;6.00;4.43;;;;;;;6.84;68.82;102662.41;5053069;28;20279;-78
2024/01/28 10:43:52;;;;;;;4.63;3.70;;;;;;;6.66;65.29;102792.44;5051402;28;20625;-78
2024/01/28 10:46:24;;;;;;;4.70;2.10;;;;;;;6.46;63.28;102898.09;5052910;28;20224;-78
2024/01/28 10:48:54;;;;;;;2.43;1.50;;;;;;;6.30;64.17;102952.78;5052551;28;20209;-78
2024/01/28 10:51:21;;;;;;;5.70;1.80;;;;;;;6.17;65.72;102961.81;5052900;28;20627;-78
2024/01/28 10:53:47;;;;;;;5.17;2.83;;;;;;;6.03;62.60;102992.38;5044282;28;20249;-78
2024/01/28 10:56:14;;;;;;;5.23;2.67;;;;;;;5.97;64.07;103000.78;5044968;28;20229;-79
2024/01/28 10:58:42;;;;;;;2.90;1.53;;;;;;;5.95;64.92;103011.91;5055952;28;20266;-78
2024/01/28 11:01:09;;;;;;;4.13;2.43;;;;;;;5.94;63.98;103005.78;5056310;28;20227;-79
2024/01/28 11:03:36;;;;;;;4.43;2.50;;;;;;;5.94;62.76;103018.75;5055596;28;20220;-80
2024/01/28 11:06:03;;;;;;;4.70;4.33;;;;;;;6.00;63.42;103030.25;5062448;28;20233;-79
2024/01/28 11:08:30;;;;;;;2.77;2.40;;;;;;;6.03;62.84;103038.16;5065610;28;20259;-80
2024/01/28 11:10:57;;;;;;;4.70;3.43;;;;;;;6.05;62.41;103023.56;5058588;28;20205;-81
2024/01/28 11:13:23;;;;;;;4.77;1.97;;;;;;;6.01;63.93;103009.56;5059103;28;20226;-78
2024/01/28 11:15:54;;;;;;;5.50;4.13;;;;;;;6.07;62.11;103020.19;5057381;28;20231;-79
2024/01/28 11:18:28;;;;;;;7.27;5.13;;;;;;;6.11;63.36;103029.00;5057847;28;20631;-80
2024/01/28 11:20:54;;;;;;;6.00;3.83;;;;;;;6.11;63.79;103014.31;5056889;28;20256;-79
2024/01/28 11:23:21;;;;;;;5.33;3.97;;;;;;;6.11;63.67;102996.16;5056273;28;20249;-78
2024/01/28 11:25:48;;;;;;;8.07;6.37;;;;;;;6.16;63.72;102998.94;5056784;28;20252;-78
2024/01/28 11:28:16;;;;;;;4.40;2.60;;;;;;;6.26;64.83;102980.31;5056603;28;20257;-78
2024/01/28 11:30:52;;;;;;;3.17;2.07;;;;;;;6.27;63.02;102989.00;5056240;28;20208;-79
2024/01/28 11:33:19;;;;;;;4.47;2.60;;;;;;;6.36;62.74;103011.00;5057658;28;20231;-79
2024/01/28 11:35:46;;;;;;;2.67;2.40;;;;;;;6.39;63.27;102999.88;5057171;28;20232;-78